Time;durP1;ratioP1;P1;durP2;ratioP2;P2;SDS_P1;SDS_P2;PMS_P1;PMS_P2;Temp;Humidity;BMP_temperature;BMP_pressure;BME280_temperature;BME280_humidity;BME280_pressure;Samples;Min_cycle;Max_cycle;Signal;HPM_P1;HPM_P2
2022/03/07 05:01:21;;;;;;;31.90;19.50;;;;;;;3.82;47.59;100784.31;5603945;31;79981;-54
2022/03/07 05:04:24;;;;;;;30.70;18.70;;;;;;;3.82;47.59;100784.31;5583904;31;33359;-54
2022/03/07 05:07:31;;;;;;;30.27;19.98;;;;;;;3.46;47.81;100781.50;5583615;31;33611;-54
2022/03/07 05:10:33;;;;;;;30.00;19.42;;;;;;;3.41;47.93;100781.38;5583744;32;33551;-54
2022/03/07 05:13:35;;;;;;;30.05;19.45;;;;;;;3.37;48.25;100780.16;5583612;31;34262;-54
2022/03/07 05:16:38;;;;;;;32.50;19.73;;;;;;;3.32;48.34;100784.53;5583631;32;34354;-55
2022/03/07 05:19:40;;;;;;;30.73;19.98;;;;;;;3.27;48.63;100779.87;5583623;31;33602;-54
2022/03/07 05:22:43;;;;;;;32.22;21.67;;;;;;;3.46;48.18;100788.63;5583531;31;34320;-55
2022/03/07 05:25:45;;;;;;;32.10;20.48;;;;;;;3.58;47.79;100786.84;5583075;32;34455;-55
2022/03/07 05:28:48;;;;;;;31.10;20.77;;;;;;;3.56;47.65;100791.56;5583262;31;33637;-54
2022/03/07 05:31:50;;;;;;;34.58;20.73;;;;;;;3.44;47.83;100788.84;5583310;31;33605;-55
2022/03/07 05:34:52;;;;;;;31.77;21.52;;;;;;;3.50;47.86;100790.59;5583418;31;33621;-55
2022/03/07 05:37:54;;;;;;;33.25;21.65;;;;;;;3.56;47.55;100788.09;5583452;31;33710;-54
2022/03/07 05:40:57;;;;;;;29.23;21.30;;;;;;;3.57;47.47;100789.72;5583447;31;33685;-54
2022/03/07 05:44:00;;;;;;;32.33;21.77;;;;;;;3.51;47.52;100796.75;5583129;31;33780;-54
2022/03/07 05:47:03;;;;;;;31.35;22.23;;;;;;;3.41;47.58;100791.12;5583198;31;34383;-54
2022/03/07 05:50:06;;;;;;;36.83;21.85;;;;;;;3.34;47.81;100795.69;5583225;31;34231;-55
2022/03/07 05:53:09;;;;;;;31.83;19.92;;;;;;;3.41;47.92;100789.31;5583138;31;33592;-55
2022/03/07 05:56:12;;;;;;;32.90;21.37;;;;;;;3.32;47.62;100795.12;5575218;32;33421;-54
2022/03/07 05:59:14;;;;;;;31.62;21.23;;;;;;;3.29;47.80;100799.03;5581735;31;33950;-54
2022/03/07 06:02:18;;;;;;;34.80;22.80;;;;;;;3.21;47.77;100796.66;5576320;31;34345;-54
2022/03/07 06:05:21;;;;;;;33.50;21.15;;;;;;;3.11;48.25;100802.47;5580715;32;34375;-55
2022/03/07 06:08:24;;;;;;;37.58;22.70;;;;;;;3.03;48.75;100800.94;5568368;32;33766;-54
2022/03/07 06:11:26;;;;;;;30.25;20.90;;;;;;;2.83;48.87;100801.12;5568754;32;34280;-54
2022/03/07 06:14:29;;;;;;;33.72;21.80;;;;;;;2.90;49.08;100802.91;5570009;32;33708;-55
2022/03/07 06:17:32;;;;;;;37.50;22.02;;;;;;;2.99;48.83;100804.25;5570012;32;34356;-54
2022/03/07 06:20:34;;;;;;;31.75;21.58;;;;;;;3.04;48.40;100810.47;5553736;32;34331;-54
2022/03/07 06:23:36;;;;;;;30.85;21.10;;;;;;;3.09;49.09;100809.84;5550402;32;33667;-54
2022/03/07 06:26:41;;;;;;;35.95;22.62;;;;;;;3.17;48.60;100816.69;5565033;32;33237;-53
2022/03/07 06:29:44;;;;;;;35.30;21.92;;;;;;;3.21;48.69;100825.81;5568238;32;33476;-54
2022/03/07 06:32:46;;;;;;;32.97;21.80;;;;;;;3.19;48.92;100823.37;5569383;32;33232;-54
2022/03/07 06:35:49;;;;;;;32.33;22.48;;;;;;;3.28;48.94;100824.72;5554227;32;34314;-54
2022/03/07 06:38:51;;;;;;;37.15;23.50;;;;;;;3.15;49.02;100830.16;5549995;32;33292;-54
2022/03/07 06:41:55;;;;;;;33.60;22.65;;;;;;;3.19;48.69;100835.84;5567149;32;33698;-54
2022/03/07 06:44:57;;;;;;;34.13;22.87;;;;;;;3.20;48.78;100835.59;5569534;32;33697;-54
2022/03/07 06:48:01;;;;;;;35.25;22.23;;;;;;;3.11;48.81;100823.66;5569330;32;33709;-55
2022/03/07 06:51:03;;;;;;;37.65;22.55;;;;;;;3.16;49.50;100826.47;5565544;32;33593;-54
2022/03/07 06:54:06;;;;;;;31.80;21.90;;;;;;;3.22;49.55;100828.25;5559868;32;33649;-54
2022/03/07 06:57:08;;;;;;;33.40;22.62;;;;;;;3.08;48.68;100821.47;5550006;32;33590;-54
2022/03/07 07:00:13;;;;;;;31.17;22.20;;;;;;;3.09;48.88;100827.59;5550206;32;33752;-54
2022/03/07 07:03:15;;;;;;;32.83;20.85;;;;;;;3.05;48.62;100829.87;5550077;32;33762;-54
2022/03/07 07:06:18;;;;;;;33.22;21.10;;;;;;;3.21;48.75;100828.44;5549911;32;34156;-54
2022/03/07 07:09:20;;;;;;;33.08;22.15;;;;;;;3.25;48.40;100837.59;5557986;32;33569;-54
2022/03/07 07:12:23;;;;;;;31.27;22.52;;;;;;;3.36;48.02;100833.41;5568020;32;33992;-54
2022/03/07 07:15:25;;;;;;;46.37;23.10;;;;;;;3.34;48.40;100835.44;5569112;32;34292;-54
2022/03/07 07:18:28;;;;;;;33.70;21.62;;;;;;;3.29;48.33;100839.59;5566659;32;33941;-54
2022/03/07 07:21:30;;;;;;;33.53;23.05;;;;;;;3.37;47.79;100835.81;5549760;32;33819;-54
2022/03/07 07:24:32;;;;;;;34.50;22.73;;;;;;;3.48;48.56;100831.62;5548786;32;33752;-55
2022/03/07 07:27:35;;;;;;;32.92;22.40;;;;;;;3.32;48.36;100840.19;5549592;32;33714;-54
2022/03/07 07:30:37;;;;;;;32.53;22.42;;;;;;;3.33;48.16;100847.09;5549271;32;33753;-54
2022/03/07 07:33:39;;;;;;;32.80;22.35;;;;;;;3.33;48.03;100839.94;5549245;32;33798;-54
2022/03/07 07:36:44;;;;;;;36.03;22.42;;;;;;;3.39;48.53;100848.88;5561712;32;34453;-54
2022/03/07 07:39:55;;;;;;;34.53;22.58;;;;;;;3.53;48.11;100863.56;5568664;32;33549;-54
2022/03/07 07:42:58;;;;;;;37.25;23.08;;;;;;;3.44;48.60;100860.41;5568884;32;33972;-54
2022/03/07 07:46:05;;;;;;;32.33;22.48;;;;;;;3.55;48.12;100866.84;5555104;32;34322;-54
2022/03/07 07:49:08;;;;;;;36.03;22.85;;;;;;;3.51;47.65;100870.97;5551032;32;33732;-54
2022/03/07 07:52:11;;;;;;;33.72;22.37;;;;;;;3.58;47.37;100863.75;5549446;32;33677;-54
2022/03/07 07:55:13;;;;;;;37.70;23.02;;;;;;;3.55;48.01;100874.78;5557432;32;33646;-54
2022/03/07 07:58:15;;;;;;;31.87;21.95;;;;;;;3.47;48.44;100867.09;5552934;32;33295;-54
2022/03/07 08:01:18;;;;;;;39.42;24.08;;;;;;;3.41;48.42;100875.94;5549914;32;33699;-54
2022/03/07 08:04:21;;;;;;;34.25;22.58;;;;;;;3.51;47.78;100881.56;5559165;32;33605;-54
2022/03/07 08:07:23;;;;;;;33.55;22.75;;;;;;;3.83;47.95;100894.66;5549380;32;33568;-54
2022/03/07 08:10:25;;;;;;;35.17;22.42;;;;;;;3.76;47.37;100898.19;5549387;32;33742;-55
2022/03/07 08:13:28;;;;;;;35.15;22.65;;;;;;;3.69;47.77;100894.81;5549749;32;34266;-54
2022/03/07 08:16:31;;;;;;;31.33;22.20;;;;;;;3.78;47.40;100891.88;5548006;32;33708;-55
2022/03/07 08:19:33;;;;;;;39.00;24.35;;;;;;;3.72;47.19;100904.97;5547751;32;33627;-54
2022/03/07 08:22:35;;;;;;;37.00;23.25;;;;;;;3.52;48.03;100897.22;5555483;32;33598;-54
2022/03/07 08:25:38;;;;;;;31.77;22.27;;;;;;;3.49;48.18;100900.31;5568191;32;33704;-54
2022/03/07 08:28:40;;;;;;;36.38;22.55;;;;;;;3.63;48.01;100903.62;5568556;32;33651;-54
2022/03/07 08:31:42;;;;;;;35.55;22.15;;;;;;;3.75;47.63;100901.06;5568216;32;33660;-56
2022/03/07 08:34:45;;;;;;;33.20;22.17;;;;;;;3.64;48.05;100897.31;5567975;32;32142;-54
2022/03/07 08:37:48;;;;;;;35.20;23.73;;;;;;;3.76;47.60;100889.41;5568599;32;33580;-54
2022/03/07 08:40:51;;;;;;;32.45;22.25;;;;;;;3.96;47.50;100886.53;5566786;32;33715;-54
2022/03/07 08:43:54;;;;;;;36.72;23.50;;;;;;;3.81;47.26;100872.81;5568252;32;33630;-54
2022/03/07 08:46:57;;;;;;;35.58;22.50;;;;;;;4.01;47.07;100870.75;5568607;32;33193;-53
2022/03/07 08:50:00;;;;;;;35.20;23.45;;;;;;;4.54;46.50;100877.16;5567997;32;33595;-54
2022/03/07 08:53:10;;;;;;;36.78;23.87;;;;;;;4.54;45.94;100855.91;5568615;32;33588;-54
2022/03/07 08:56:19;;;;;;;30.85;21.92;;;;;;;4.53;46.02;100868.34;5568109;32;33633;-55
2022/03/07 08:59:28;;;;;;;33.22;22.08;;;;;;;4.48;45.68;100876.22;5558321;32;33598;-55
2022/03/07 09:02:31;;;;;;;32.63;22.48;;;;;;;4.07;46.64;100875.13;5548522;32;33796;-54
2022/03/07 09:05:35;;;;;;;36.63;22.08;;;;;;;3.98;46.63;100879.97;5548868;32;34319;-54
2022/03/07 09:08:37;;;;;;;31.98;22.65;;;;;;;3.95;46.63;100877.75;5548054;32;34317;-54
2022/03/07 09:11:45;;;;;;;32.45;22.35;;;;;;;4.04;46.14;100885.41;5548516;32;34439;-54
2022/03/07 09:14:47;;;;;;;33.67;21.80;;;;;;;4.02;46.86;100888.28;5548027;32;33601;-54
2022/03/07 09:17:50;;;;;;;34.20;21.73;;;;;;;4.25;46.58;100879.59;5548570;32;34312;-55
2022/03/07 09:20:52;;;;;;;33.28;22.17;;;;;;;4.35;46.58;100868.44;5552720;32;33961;-54
2022/03/07 09:23:54;;;;;;;30.15;20.65;;;;;;;4.55;45.51;100878.75;5559819;32;33393;-54
2022/03/07 09:26:57;;;;;;;31.65;22.02;;;;;;;4.36;45.82;100878.81;5566494;32;35110;-55
2022/03/07 09:29:59;;;;;;;30.33;20.50;;;;;;;4.50;45.98;100863.50;5567345;32;34271;-54
2022/03/07 09:33:03;;;;;;;33.30;21.05;;;;;;;4.89;45.37;100863.91;5564610;32;33164;-54
2022/03/07 09:36:06;;;;;;;33.55;21.77;;;;;;;4.66;44.65;100864.69;5559235;32;33717;-55
2022/03/07 09:39:11;;;;;;;30.95;20.70;;;;;;;4.35;45.91;100866.59;5558638;32;33695;-54
2022/03/07 09:42:15;;;;;;;29.73;19.42;;;;;;;4.37;44.98;100875.16;5562771;32;33278;-55
2022/03/07 09:45:17;;;;;;;31.48;20.10;;;;;;;4.27;46.05;100868.75;5562813;32;34226;-54
2022/03/07 09:48:22;;;;;;;32.15;20.30;;;;;;;4.36;45.64;100865.56;5566046;32;33668;-54
2022/03/07 09:51:24;;;;;;;29.98;20.27;;;;;;;4.44;45.53;100859.12;5562323;32;34385;-55
2022/03/07 09:54:27;;;;;;;33.78;21.15;;;;;;;4.61;46.57;100846.81;5554794;32;34348;-54
2022/03/07 09:57:29;;;;;;;34.47;22.08;;;;;;;4.94;44.83;100848.91;5568997;32;33861;-54
2022/03/07 10:00:33;;;;;;;31.83;21.00;;;;;;;4.85;44.70;100854.78;5565919;32;34260;-54
2022/03/07 10:03:36;;;;;;;31.77;21.62;;;;;;;5.00;44.55;100852.50;5562598;32;34379;-54
2022/03/07 10:06:50;;;;;;;34.03;20.37;;;;;;;5.08;44.43;100846.81;5567617;32;33817;-54
2022/03/07 10:10:11;;;;;;;40.97;21.42;;;;;;;5.01;44.55;100851.44;5569269;32;34011;-54
2022/03/07 10:13:14;;;;;;;29.27;20.40;;;;;;;5.17;44.88;100850.75;5563829;32;33859;-55
2022/03/07 10:16:17;;;;;;;39.25;20.95;;;;;;;5.47;44.05;100848.97;5557773;32;33773;-54
2022/03/07 10:19:20;;;;;;;30.45;19.90;;;;;;;5.27;43.72;100847.50;5568636;32;33986;-54
2022/03/07 10:22:27;;;;;;;30.27;19.77;;;;;;;5.10;43.65;100846.56;5568161;32;33463;-54
2022/03/07 10:25:32;;;;;;;39.80;16.73;;;;;;;5.21;43.02;100851.09;5568170;32;34456;-54
2022/03/07 10:28:36;;;;;;;25.80;16.85;;;;;;;4.62;44.18;100851.06;5564048;32;33547;-54
2022/03/07 10:31:44;;;;;;;25.48;16.40;;;;;;;4.36;43.66;100848.81;5565039;32;34302;-53
2022/03/07 10:34:47;;;;;;;25.20;16.23;;;;;;;4.07;44.64;100853.91;5566760;32;33761;-54
2022/03/07 10:37:50;;;;;;;28.85;16.25;;;;;;;4.06;44.37;100854.16;5561422;32;34404;-54
2022/03/07 10:40:54;;;;;;;27.42;17.45;;;;;;;4.17;44.28;100840.09;5563773;32;33619;-54
2022/03/07 10:43:56;;;;;;;28.67;18.02;;;;;;;4.39;43.79;100846.53;5561519;32;33331;-54
2022/03/07 10:47:09;;;;;;;25.83;16.52;;;;;;;4.48;44.26;100849.66;5561784;32;33285;-54
2022/03/07 10:50:11;;;;;;;25.52;16.75;;;;;;;4.28;43.76;100838.53;5549907;32;33713;-54
2022/03/07 10:53:14;;;;;;;25.05;17.00;;;;;;;4.17;44.30;100832.16;5563805;32;34302;-54
2022/03/07 10:56:17;;;;;;;26.00;17.75;;;;;;;4.25;44.12;100829.19;5564613;32;34337;-54
2022/03/07 10:59:32;;;;;;;26.33;18.40;;;;;;;4.32;44.63;100826.44;5549758;32;33773;-54
2022/03/07 11:02:42;;;;;;;27.65;18.67;;;;;;;4.46;43.69;100820.66;5566794;32;34244;-54
2022/03/07 11:05:45;;;;;;;27.87;18.92;;;;;;;4.32;44.17;100813.97;5559238;32;33830;-54
2022/03/07 11:08:47;;;;;;;29.37;18.05;;;;;;;4.29;44.09;100813.63;5564195;32;34345;-55
2022/03/07 11:11:51;;;;;;;28.45;18.48;;;;;;;4.40;44.24;100804.84;5569250;32;33741;-54
2022/03/07 11:14:57;;;;;;;30.70;18.92;;;;;;;4.60;44.10;100807.19;5568997;32;33694;-54
2022/03/07 11:17:59;;;;;;;26.85;16.98;;;;;;;4.43;44.01;100799.09;5566097;32;33619;-54
2022/03/07 11:21:05;;;;;;;28.33;17.70;;;;;;;4.48;44.07;100797.38;5566758;32;33345;-55
2022/03/07 11:24:08;;;;;;;26.42;17.50;;;;;;;4.50;43.67;100788.34;5564757;32;33745;-54
2022/03/07 11:27:10;;;;;;;29.12;17.77;;;;;;;4.27;43.76;100784.62;5568059;32;34154;-54
2022/03/07 11:30:13;;;;;;;28.02;17.55;;;;;;;4.44;43.90;100776.84;5567392;32;34357;-54
2022/03/07 11:33:20;;;;;;;27.42;17.85;;;;;;;4.40;43.81;100760.56;5562446;32;33631;-55
2022/03/07 11:36:25;;;;;;;31.52;18.23;;;;;;;4.47;43.55;100773.72;5555446;32;33730;-54
2022/03/07 11:39:32;;;;;;;25.35;17.05;;;;;;;4.80;43.28;100754.56;5554515;32;34321;-54
2022/03/07 11:42:37;;;;;;;26.75;17.60;;;;;;;4.76;42.84;100756.03;5559354;32;33828;-54
2022/03/07 11:45:39;;;;;;;30.95;18.00;;;;;;;4.76;43.69;100756.03;5557333;32;33782;-54
2022/03/07 11:48:47;;;;;;;26.58;17.52;;;;;;;4.81;43.24;100750.03;5560537;32;33630;-54
2022/03/07 11:51:57;;;;;;;29.00;17.95;;;;;;;4.66;43.07;100746.00;5554837;32;34498;-56
2022/03/07 11:55:03;;;;;;;30.37;19.62;;;;;;;4.60;43.50;100746.94;5561746;32;33774;-55
2022/03/07 11:58:05;;;;;;;31.92;19.00;;;;;;;4.40;44.00;100749.09;5568950;32;33624;-54
2022/03/07 12:01:12;;;;;;;28.48;18.50;;;;;;;4.62;43.58;100744.84;5564895;32;33760;-54
2022/03/07 12:04:15;;;;;;;27.37;18.65;;;;;;;4.61;43.30;100743.25;5552263;32;33756;-54
2022/03/07 12:07:26;;;;;;;32.08;19.55;;;;;;;4.71;43.01;100742.66;5558654;32;34162;-54
2022/03/07 12:10:29;;;;;;;29.05;18.20;;;;;;;4.50;43.56;100736.06;5557113;32;33070;-55
2022/03/07 12:13:33;;;;;;;33.03;19.80;;;;;;;4.57;43.47;100747.41;5557869;32;33606;-54
2022/03/07 12:16:41;;;;;;;32.75;20.50;;;;;;;4.63;43.96;100741.13;5556135;32;33709;-55
2022/03/07 12:19:51;;;;;;;35.25;22.42;;;;;;;4.79;43.53;100741.50;5552812;32;33904;-55
2022/03/07 12:22:54;;;;;;;38.78;23.52;;;;;;;4.76;43.53;100734.78;5566828;32;33668;-54
2022/03/07 12:26:08;;;;;;;40.53;24.02;;;;;;;4.63;43.85;100738.47;5560844;32;33761;-54
2022/03/07 12:29:11;;;;;;;41.28;25.48;;;;;;;4.67;44.34;100738.84;5550537;32;33787;-54
2022/03/07 12:32:13;;;;;;;40.20;23.65;;;;;;;4.55;43.86;100730.88;5565016;32;33641;-54
2022/03/07 12:35:18;;;;;;;36.50;23.77;;;;;;;4.79;43.29;100729.00;5556878;32;33757;-54
2022/03/07 12:38:24;;;;;;;38.20;25.20;;;;;;;5.02;42.48;100724.72;5550921;32;34277;-54
2022/03/07 12:41:34;;;;;;;35.63;23.57;;;;;;;4.88;42.76;100732.94;5559205;32;35121;-54
2022/03/07 12:44:38;;;;;;;38.08;21.75;;;;;;;4.66;42.81;100735.37;5568117;32;33480;-54
2022/03/07 12:47:40;;;;;;;39.08;23.48;;;;;;;4.28;43.34;100737.69;5568674;32;33662;-54
2022/03/07 12:50:42;;;;;;;35.55;20.98;;;;;;;4.24;43.89;100735.50;5567812;32;34042;-54
2022/03/07 12:53:46;;;;;;;34.47;21.05;;;;;;;4.06;43.77;100743.53;5565776;32;34359;-55
2022/03/07 12:56:48;;;;;;;34.92;22.10;;;;;;;4.38;43.45;100740.59;5566795;32;33686;-54
2022/03/07 12:59:58;;;;;;;44.42;22.58;;;;;;;4.54;43.18;100742.56;5563006;32;34340;-54
2022/03/07 13:03:07;;;;;;;37.55;23.75;;;;;;;4.30;44.16;100743.56;5554904;32;35095;-55
2022/03/07 13:06:10;;;;;;;38.67;22.90;;;;;;;4.12;43.75;100737.31;5562179;32;35698;-54
2022/03/07 13:09:12;;;;;;;35.97;22.15;;;;;;;4.29;43.49;100737.44;5549221;32;33600;-54
2022/03/07 13:12:14;;;;;;;37.13;21.48;;;;;;;4.59;43.12;100729.38;5566882;32;33762;-56
2022/03/07 13:15:16;;;;;;;35.97;22.45;;;;;;;4.69;42.95;100732.25;5562711;32;33386;-54
2022/03/07 13:18:21;;;;;;;38.47;23.65;;;;;;;4.74;42.56;100733.44;5567624;32;34320;-54
2022/03/07 13:21:24;;;;;;;37.17;22.90;;;;;;;4.61;42.33;100737.12;5564723;32;33132;-54
2022/03/07 13:24:28;;;;;;;41.08;24.00;;;;;;;4.36;42.70;100730.19;5570247;32;33739;-54
2022/03/07 13:27:31;;;;;;;39.58;22.50;;;;;;;4.11;43.37;100741.00;5560904;32;33751;-54
2022/03/07 13:30:34;;;;;;;37.38;23.12;;;;;;;4.18;43.54;100738.25;5569342;32;33628;-54
2022/03/07 13:33:36;;;;;;;35.65;22.48;;;;;;;4.31;43.29;100739.88;5569521;32;33615;-54
2022/03/07 13:36:59;;;;;;;36.35;22.90;;;;;;;4.42;42.79;100739.06;5552893;32;33710;-55
2022/03/07 13:40:08;;;;;;;35.67;22.75;;;;;;;4.53;42.78;100743.56;5550774;32;34038;-54
2022/03/07 13:43:10;;;;;;;36.63;23.42;;;;;;;4.68;43.02;100743.13;5564443;32;33633;-55
2022/03/07 13:46:17;;;;;;;34.42;21.75;;;;;;;4.62;42.47;100741.38;5570031;32;34413;-54
2022/03/07 13:49:19;;;;;;;36.55;23.10;;;;;;;4.59;42.69;100740.00;5570442;32;33344;-54
2022/03/07 13:52:37;;;;;;;35.00;23.25;;;;;;;4.27;43.21;100736.84;5569394;32;34404;-54
2022/03/07 13:55:50;;;;;;;35.30;21.98;;;;;;;3.92;43.98;100750.09;5550838;32;33757;-53
2022/03/07 13:58:53;;;;;;;38.60;22.45;;;;;;;4.11;43.42;100742.88;5550907;32;33728;-54
2022/03/07 14:01:55;;;;;;;36.42;22.02;;;;;;;4.19;43.33;100745.16;5563812;32;33752;-54
2022/03/07 14:05:01;;;;;;;35.40;23.17;;;;;;;4.14;43.64;100753.81;5565642;32;33044;-54
2022/03/07 14:08:03;;;;;;;35.47;22.83;;;;;;;4.09;43.18;100748.38;5570157;32;33771;-54
2022/03/07 14:11:24;;;;;;;40.47;21.90;;;;;;;4.14;43.34;100750.34;5568046;32;33698;-55
2022/03/07 14:14:27;;;;;;;35.10;22.98;;;;;;;4.33;43.00;100749.22;5561391;32;33799;-54
2022/03/07 14:17:30;;;;;;;38.13;22.80;;;;;;;4.42;42.64;100742.53;5551592;32;33247;-54
2022/03/07 14:20:34;;;;;;;34.55;22.42;;;;;;;4.29;42.70;100740.09;5569480;32;33624;-54
2022/03/07 14:23:39;;;;;;;34.92;21.73;;;;;;;4.39;42.25;100737.69;5569017;32;33809;-54
2022/03/07 14:26:41;;;;;;;36.92;21.87;;;;;;;4.43;42.44;100736.19;5554565;32;33783;-55
2022/03/07 14:29:44;;;;;;;33.17;22.23;;;;;;;4.33;42.39;100737.78;5555434;32;33599;-54
2022/03/07 14:32:46;;;;;;;35.95;22.10;;;;;;;4.54;42.34;100739.91;5559155;32;34374;-54
2022/03/07 14:35:49;;;;;;;34.00;22.80;;;;;;;4.62;42.50;100746.69;5563210;32;33749;-54
2022/03/07 14:38:51;;;;;;;36.28;23.30;;;;;;;4.67;42.17;100744.16;5566168;32;33823;-54
2022/03/07 14:41:53;;;;;;;35.05;21.52;;;;;;;4.89;42.13;100754.97;5558642;32;33733;-54
2022/03/07 14:45:12;;;;;;;36.58;21.98;;;;;;;4.91;41.85;100742.28;5568318;32;32226;-54
2022/03/07 14:48:14;;;;;;;36.95;22.17;;;;;;;5.16;41.79;100742.78;5563645;32;34384;-54
2022/03/07 14:51:17;;;;;;;35.22;22.50;;;;;;;5.25;40.74;100737.12;5568240;32;34320;-54
2022/03/07 14:54:19;;;;;;;37.38;24.23;;;;;;;5.12;41.73;100739.00;5566276;32;34199;-54
2022/03/07 14:57:22;;;;;;;33.58;22.62;;;;;;;4.99;42.00;100735.81;5565610;32;33851;-55
2022/03/07 15:00:25;;;;;;;34.65;21.98;;;;;;;4.85;41.40;100741.38;5567380;32;34463;-54
2022/03/07 15:03:27;;;;;;;33.90;23.12;;;;;;;5.05;41.12;100737.53;5567206;32;34278;-54
2022/03/07 15:06:32;;;;;;;35.33;21.42;;;;;;;4.86;41.29;100734.19;5557681;32;34425;-54
2022/03/07 15:09:35;;;;;;;32.05;22.08;;;;;;;4.94;41.37;100731.19;5549996;32;34361;-54
2022/03/07 15:12:37;;;;;;;36.65;24.05;;;;;;;5.00;41.23;100737.41;5549890;32;33681;-54
2022/03/07 15:15:40;;;;;;;34.38;22.58;;;;;;;4.97;41.31;100730.72;5560259;32;35018;-54
2022/03/07 15:18:42;;;;;;;38.03;22.65;;;;;;;5.11;41.75;100734.72;5549844;32;33741;-54
2022/03/07 15:21:46;;;;;;;33.55;22.98;;;;;;;5.35;40.93;100742.63;5553689;32;34333;-54
2022/03/07 15:24:51;;;;;;;36.63;23.42;;;;;;;5.23;40.83;100750.66;5554890;32;33648;-54
2022/03/07 15:27:53;;;;;;;33.92;21.55;;;;;;;5.41;40.07;100749.66;5563589;32;33692;-54
2022/03/07 15:30:56;;;;;;;34.70;22.05;;;;;;;5.47;40.63;100739.94;5563842;32;34490;-54
2022/03/07 15:33:59;;;;;;;35.85;21.70;;;;;;;5.79;40.12;100740.25;5569026;32;33737;-54
2022/03/07 15:37:02;;;;;;;33.03;20.83;;;;;;;5.86;40.44;100744.41;5568016;32;33972;-54
2022/03/07 15:40:05;;;;;;;36.78;22.95;;;;;;;5.92;39.96;100742.59;5559596;32;33803;-54
2022/03/07 15:43:07;;;;;;;35.03;22.30;;;;;;;5.69;39.51;100748.84;5561841;32;34324;-54
2022/03/07 15:46:09;;;;;;;32.85;21.27;;;;;;;5.46;40.10;100743.62;5567543;32;33755;-54
2022/03/07 15:49:12;;;;;;;32.70;21.62;;;;;;;5.69;39.80;100748.06;5564657;32;33764;-54
2022/03/07 15:52:15;;;;;;;31.98;21.58;;;;;;;5.71;39.38;100748.63;5567949;32;33646;-55
2022/03/07 15:55:17;;;;;;;34.35;21.55;;;;;;;5.80;39.00;100742.69;5567870;32;34388;-54
2022/03/07 15:58:21;;;;;;;32.67;21.02;;;;;;;5.58;39.28;100757.69;5553957;32;33690;-55
2022/03/07 16:01:23;;;;;;;31.60;22.25;;;;;;;5.49;40.52;100759.13;5549580;32;32282;-54
2022/03/07 16:04:26;;;;;;;36.78;22.35;;;;;;;5.74;39.47;100777.41;5549640;32;33885;-54
2022/03/07 16:07:28;;;;;;;33.88;22.70;;;;;;;5.64;39.45;100770.06;5558477;32;34541;-54
2022/03/07 16:10:31;;;;;;;34.53;22.08;;;;;;;5.64;39.61;100773.53;5567544;32;33665;-55
2022/03/07 16:13:33;;;;;;;32.10;21.73;;;;;;;5.60;39.51;100775.03;5561047;32;34368;-54
2022/03/07 16:16:37;;;;;;;31.42;21.62;;;;;;;5.62;39.44;100770.28;5549565;32;33575;-54
2022/03/07 16:19:42;;;;;;;33.67;22.15;;;;;;;5.33;40.18;100771.28;5548935;32;34260;-54
2022/03/07 16:22:45;;;;;;;34.92;22.40;;;;;;;5.27;39.92;100774.91;5563840;32;33809;-55
2022/03/07 16:25:52;;;;;;;32.35;20.70;;;;;;;5.32;40.61;100769.69;5549684;32;34247;-55
2022/03/07 16:28:55;;;;;;;31.15;21.48;;;;;;;5.18;40.27;100774.47;5563391;32;34470;-54
2022/03/07 16:31:57;;;;;;;33.05;22.25;;;;;;;5.23;40.32;100779.06;5567073;32;33460;-54
2022/03/07 16:35:00;;;;;;;34.28;22.77;;;;;;;5.32;40.26;100781.12;5567962;32;33645;-56
2022/03/07 16:38:02;;;;;;;31.62;22.23;;;;;;;5.33;40.44;100780.09;5563987;32;34269;-55
2022/03/07 16:41:05;;;;;;;36.15;22.08;;;;;;;5.27;40.34;100789.00;5553416;32;33810;-54
2022/03/07 16:44:07;;;;;;;31.12;22.13;;;;;;;5.39;40.27;100791.62;5551794;32;33783;-55
2022/03/07 16:47:10;;;;;;;30.88;22.00;;;;;;;5.41;39.58;100801.00;5559027;32;34116;-54
2022/03/07 16:50:14;;;;;;;34.42;23.12;;;;;;;5.27;40.36;100806.81;5562902;32;33408;-54
2022/03/07 16:53:17;;;;;;;34.60;22.15;;;;;;;5.22;40.81;100815.47;5566435;32;33724;-55
